createdAt,value
2022-11-20T00:03:33.057Z,1.47
2022-11-20T00:06:08.496Z,1.40
2022-11-20T00:08:36.871Z,1.10
2022-11-20T00:11:16.812Z,1.07
2022-11-20T00:13:51.554Z,1.25
2022-11-20T00:16:35.649Z,1.17
2022-11-20T00:24:55.641Z,1.20
2022-11-20T00:27:34.357Z,0.63
2022-11-20T00:33:18.361Z,1.13
2022-11-20T00:41:41.318Z,1.43
2022-11-20T00:44:22.016Z,1.00
2022-11-20T00:46:58.847Z,1.03
2022-11-20T00:49:54.509Z,1.13
2022-11-20T00:52:24.532Z,1.00
2022-11-20T00:55:09.392Z,1.10
2022-11-20T00:57:42.261Z,1.57
2022-11-20T01:00:12.502Z,1.30
2022-11-20T01:02:39.965Z,1.00
2022-11-20T01:05:15.372Z,1.23
2022-11-20T01:07:46.023Z,2.10
2022-11-20T01:10:28.600Z,1.30
2022-11-20T01:13:20.232Z,1.57
2022-11-20T01:15:55.604Z,1.50
2022-11-20T01:18:32.266Z,1.17
2022-11-20T01:21:09.252Z,1.30
2022-11-20T01:23:38.494Z,1.33
2022-11-20T01:26:10.114Z,1.00
2022-11-20T01:28:41.090Z,1.25
2022-11-20T01:31:25.565Z,1.03
2022-11-20T01:34:24.019Z,1.30
2022-11-20T01:36:58.297Z,1.10
2022-11-20T01:39:27.701Z,1.30
2022-11-20T01:42:24.374Z,1.10
2022-11-20T01:45:00.571Z,1.43
2022-11-20T01:47:44.957Z,2.17
2022-11-20T01:50:28.448Z,1.47
2022-11-20T01:53:15.138Z,0.90
2022-11-20T01:55:57.093Z,1.60
2022-11-20T01:58:37.689Z,1.63
2022-11-20T02:01:08.885Z,1.23
2022-11-20T02:03:45.887Z,1.30
2022-11-20T02:06:27.054Z,1.50
2022-11-20T02:08:58.750Z,1.27
2022-11-20T02:11:26.185Z,1.53
2022-11-20T02:14:17.044Z,1.17
2022-11-20T02:17:00.631Z,1.33
2022-11-20T02:19:35.482Z,1.17
2022-11-20T02:22:59.361Z,1.20
2022-11-20T02:25:37.214Z,1.20
2022-11-20T02:28:10.532Z,1.60
2022-11-20T02:33:34.316Z,1.70
2022-11-20T02:36:14.408Z,1.77
2022-11-20T02:38:44.966Z,1.73
2022-11-20T02:41:24.509Z,1.73
2022-11-20T02:44:16.037Z,1.30
2022-11-20T02:47:07.789Z,1.23
2022-11-20T02:50:01.753Z,0.90
2022-11-20T02:53:05.189Z,0.87
2022-11-20T02:56:04.569Z,1.20
2022-11-20T02:58:39.606Z,0.90
2022-11-20T03:01:17.630Z,1.27
2022-11-20T03:06:49.300Z,1.10
2022-11-20T03:09:29.097Z,1.27
2022-11-20T03:12:17.985Z,0.97
2022-11-20T03:14:56.438Z,0.90
2022-11-20T03:17:26.100Z,0.90
2022-11-20T03:20:02.306Z,1.00
2022-11-20T03:22:47.841Z,0.97
2022-11-20T03:25:21.092Z,1.20
2022-11-20T03:27:59.076Z,1.20
2022-11-20T03:33:36.724Z,1.20
2022-11-20T03:36:08.677Z,1.33
2022-11-20T03:39:02.454Z,1.30
2022-11-20T03:41:36.213Z,1.20
2022-11-20T03:44:28.290Z,1.30
2022-11-20T03:47:07.778Z,1.33
2022-11-20T03:49:59.608Z,1.20
2022-11-20T03:52:45.294Z,1.37
2022-11-20T03:55:55.593Z,1.37
2022-11-20T03:58:44.386Z,1.10
2022-11-20T04:04:47.310Z,1.07
2022-11-20T04:07:46.660Z,1.20
2022-11-20T04:10:42.234Z,1.50
2022-11-20T04:20:51.444Z,1.30
2022-11-20T04:23:54.429Z,1.37
2022-11-20T04:27:18.853Z,1.13
2022-11-20T04:31:03.501Z,0.90
2022-11-20T04:48:33.010Z,1.30
2022-11-20T04:54:39.438Z,1.40
2022-11-20T04:57:38.980Z,1.20
2022-11-20T05:00:21.193Z,1.20
2022-11-20T05:03:04.536Z,0.80
2022-11-20T05:06:11.035Z,0.97
2022-11-20T05:08:54.229Z,1.20
2022-11-20T05:11:40.599Z,1.43
2022-11-20T05:14:34.117Z,1.20
2022-11-20T05:18:48.907Z,1.07
2022-11-20T05:21:43.643Z,1.40
2022-11-20T05:24:31.443Z,1.20
2022-11-20T05:27:07.127Z,1.40
2022-11-20T05:33:39.324Z,1.42
2022-11-20T05:36:43.821Z,1.30
2022-11-20T05:39:13.602Z,1.37
2022-11-20T05:41:40.663Z,1.10
2022-11-20T05:44:18.032Z,1.80
2022-11-20T05:46:50.774Z,1.27
2022-11-20T05:49:36.243Z,1.30
2022-11-20T05:52:09.202Z,1.53
2022-11-20T05:54:37.357Z,1.30
2022-11-20T05:57:08.869Z,1.17
2022-11-20T05:59:39.156Z,1.27
2022-11-20T06:02:15.376Z,1.40
2022-11-20T06:04:46.098Z,1.10
2022-11-20T06:07:13.996Z,1.90
2022-11-20T06:09:44.486Z,1.37
2022-11-20T06:12:14.976Z,1.70
2022-11-20T06:14:45.397Z,1.47
2022-11-20T06:17:15.497Z,1.87
2022-11-20T06:19:45.500Z,1.40
2022-11-20T06:22:15.348Z,2.00
2022-11-20T06:24:42.788Z,1.70
2022-11-20T06:27:11.879Z,1.70
2022-11-20T06:29:46.828Z,1.50
2022-11-20T06:32:18.197Z,1.47
2022-11-20T06:34:54.846Z,1.40
2022-11-20T06:37:36.072Z,1.50
2022-11-20T06:42:31.030Z,2.10
2022-11-20T06:45:01.300Z,1.53
2022-11-20T06:47:31.539Z,2.10
2022-11-20T06:50:04.670Z,1.43
2022-11-20T06:52:40.876Z,1.60
2022-11-20T06:55:14.196Z,1.50
2022-11-20T06:57:41.678Z,1.30
2022-11-20T07:00:14.722Z,1.90
2022-11-20T07:02:45.400Z,1.67
2022-11-20T07:05:13.462Z,1.70
2022-11-20T07:07:44.029Z,1.40
2022-11-20T07:10:20.183Z,1.57
2022-11-20T07:14:18.466Z,1.30
2022-11-20T07:17:18.800Z,1.40
2022-11-20T07:19:55.639Z,2.20
2022-11-20T07:25:38.029Z,1.70
2022-11-20T07:28:17.229Z,1.80
2022-11-20T07:30:56.563Z,1.60
2022-11-20T07:33:36.734Z,1.80
2022-11-20T07:36:21.230Z,1.33
2022-11-20T07:39:01.851Z,1.70
2022-11-20T07:41:35.823Z,1.40
2022-11-20T07:44:21.761Z,1.97
2022-11-20T07:46:58.569Z,1.63
2022-11-20T07:49:33.853Z,1.87
2022-11-20T07:52:30.595Z,1.77
2022-11-20T07:55:06.535Z,1.80
2022-11-20T07:57:35.061Z,1.77
2022-11-20T08:00:06.369Z,1.70
2022-11-20T08:02:42.377Z,1.70
2022-11-20T08:05:11.016Z,1.73
2022-11-20T08:07:43.025Z,2.47
2022-11-20T08:10:12.550Z,2.15
2022-11-20T08:13:09.617Z,2.97
2022-11-20T08:15:37.570Z,2.50
2022-11-20T08:18:29.922Z,3.03
2022-11-20T08:20:52.657Z,3.47
2022-11-20T08:23:19.558Z,2.40
2022-11-20T08:25:50.840Z,3.27
2022-11-20T08:28:21.250Z,3.53
2022-11-20T08:30:51.179Z,3.40
2022-11-20T08:33:19.286Z,3.10
2022-11-20T08:35:46.887Z,3.23
2022-11-20T08:38:14.342Z,2.30
2022-11-20T08:40:41.469Z,3.07
2022-11-20T08:43:08.340Z,2.70
2022-11-20T08:45:35.727Z,2.70
2022-11-20T08:48:03.518Z,2.77
2022-11-20T08:50:33.170Z,2.13
2022-11-20T08:53:05.006Z,2.40
2022-11-20T08:55:32.060Z,2.73
2022-11-20T08:57:59.098Z,2.47
2022-11-20T09:00:29.092Z,2.10
2022-11-20T09:02:56.061Z,1.90
2022-11-20T09:05:22.961Z,2.63
2022-11-20T09:07:49.981Z,2.70
2022-11-20T09:10:24.192Z,2.90
2022-11-20T09:12:56.383Z,2.90
2022-11-20T09:15:24.738Z,3.10
2022-11-20T09:18:01.924Z,3.03
2022-11-20T09:20:30.584Z,3.60
2022-11-20T09:22:58.702Z,3.07
2022-11-20T09:25:34.634Z,3.60
2022-11-20T09:28:01.716Z,2.23
2022-11-20T09:30:28.815Z,2.00
2022-11-20T09:32:55.939Z,2.50
2022-11-20T09:35:25.848Z,3.00
2022-11-20T09:37:52.794Z,1.90
2022-11-20T09:40:29.360Z,2.00
2022-11-20T09:43:18.338Z,3.47
2022-11-20T09:46:23.905Z,2.97
2022-11-20T09:49:12.761Z,3.60
2022-11-20T09:51:59.082Z,3.10
2022-11-20T09:54:38.769Z,2.10
2022-11-20T09:57:22.848Z,2.40
2022-11-20T10:00:06.711Z,2.90
2022-11-20T10:02:48.589Z,2.57
2022-11-20T10:05:23.799Z,2.63
2022-11-20T10:08:24.922Z,2.97
2022-11-20T10:11:12.991Z,2.50
2022-11-20T10:14:04.879Z,3.20
2022-11-20T10:16:45.180Z,3.03
2022-11-20T10:19:36.659Z,3.13
2022-11-20T10:22:28.538Z,1.90
2022-11-20T10:25:05.164Z,3.10
2022-11-20T10:28:03.334Z,3.07
2022-11-20T10:30:32.108Z,2.70
2022-11-20T10:33:06.414Z,2.67
2022-11-20T10:35:46.098Z,3.27
2022-11-20T10:38:39.730Z,3.10
2022-11-20T10:41:26.049Z,3.43
2022-11-20T10:44:13.057Z,2.97
2022-11-20T10:46:49.184Z,2.43
2022-11-20T10:49:19.329Z,3.40
2022-11-20T10:51:49.428Z,2.07
2022-11-20T10:54:28.397Z,1.90
2022-11-20T10:57:04.104Z,2.57
2022-11-20T10:59:45.459Z,2.97
2022-11-20T11:02:26.600Z,2.85
2022-11-20T11:04:54.895Z,2.75
2022-11-20T11:07:37.624Z,2.63
2022-11-20T11:10:18.589Z,2.40
2022-11-20T11:12:48.674Z,2.67
2022-11-20T11:15:39.929Z,2.53
2022-11-20T11:18:11.017Z,3.43
2022-11-20T11:20:38.640Z,3.30
2022-11-20T11:23:05.746Z,3.30
2022-11-20T11:25:37.424Z,3.85
2022-11-20T11:28:20.614Z,3.50
2022-11-20T11:30:51.914Z,4.25
2022-11-20T11:33:27.444Z,5.30
2022-11-20T11:36:19.294Z,4.57
2022-11-20T11:38:46.272Z,4.97
2022-11-20T11:41:18.628Z,4.90
2022-11-20T11:44:36.446Z,3.55
2022-11-20T11:47:06.066Z,5.68
2022-11-20T11:49:33.056Z,4.60
2022-11-20T11:52:09.147Z,5.20
2022-11-20T11:54:56.057Z,4.05
2022-11-20T11:57:38.510Z,4.68
2022-11-20T12:00:14.404Z,4.40
2022-11-20T12:02:44.124Z,4.30
2022-11-20T12:05:28.694Z,3.92
2022-11-20T12:08:12.355Z,6.37
2022-11-20T12:11:04.395Z,5.05
2022-11-20T12:13:57.005Z,4.07
2022-11-20T12:16:26.535Z,4.30
2022-11-20T12:18:54.175Z,3.83
2022-11-20T12:21:32.183Z,4.38
2022-11-20T12:24:12.546Z,4.20
2022-11-20T12:27:10.397Z,4.72
2022-11-20T12:30:15.045Z,5.40
2022-11-20T12:32:42.023Z,4.17
2022-11-20T12:35:23.907Z,5.17
2022-11-20T12:38:12.611Z,4.80
2022-11-20T12:41:00.672Z,4.47
2022-11-20T12:43:57.138Z,5.80
2022-11-20T12:46:29.817Z,12.37
2022-11-20T12:52:22.094Z,7.80
2022-11-20T12:55:14.675Z,6.33
2022-11-20T12:58:04.819Z,5.80
2022-11-20T13:00:35.379Z,4.90
2022-11-20T13:03:37.902Z,5.38
2022-11-20T13:06:16.725Z,4.80
2022-11-20T13:08:57.061Z,4.97
2022-11-20T13:11:42.599Z,4.47
2022-11-20T13:14:46.745Z,4.55
2022-11-20T13:17:32.528Z,4.90
2022-11-20T13:20:00.295Z,4.55
2022-11-20T13:22:43.846Z,5.15
2022-11-20T13:25:16.361Z,5.40
2022-11-20T13:30:20.054Z,4.00
2022-11-20T13:32:57.632Z,4.82
2022-11-20T13:35:27.687Z,4.60
2022-11-20T13:38:20.937Z,4.50
2022-11-20T13:40:58.314Z,4.78
2022-11-20T13:43:43.418Z,4.78
2022-11-20T13:46:11.100Z,7.13
2022-11-20T13:48:47.057Z,5.43
2022-11-20T13:51:40.086Z,6.65
2022-11-20T13:54:34.344Z,6.05
2022-11-20T13:57:07.297Z,4.90
2022-11-20T13:59:34.407Z,5.95
2022-11-20T14:02:02.246Z,7.78
2022-11-20T14:04:36.358Z,6.20
2022-11-20T14:07:10.201Z,6.45
2022-11-20T14:09:37.226Z,12.10
2022-11-20T14:12:15.330Z,8.38
2022-11-20T14:14:51.218Z,8.35
2022-11-20T14:17:36.020Z,7.47
2022-11-20T14:20:07.211Z,10.07
2022-11-20T14:22:34.376Z,8.57
2022-11-20T14:25:19.256Z,7.90
2022-11-20T14:27:53.444Z,8.57
2022-11-20T14:30:26.113Z,7.32
2022-11-20T14:35:35.405Z,6.80
2022-11-20T14:38:03.987Z,7.57
2022-11-20T14:40:33.886Z,6.63
2022-11-20T14:43:01.035Z,7.90
2022-11-20T14:45:28.761Z,6.57
2022-11-20T14:47:58.707Z,5.53
2022-11-20T14:50:28.335Z,5.15
2022-11-20T14:53:00.449Z,6.00
2022-11-20T14:55:39.551Z,4.82
2022-11-20T14:58:21.097Z,6.63
2022-11-20T15:00:59.866Z,6.68
2022-11-20T15:03:35.455Z,4.00
2022-11-20T15:06:06.888Z,4.35
2022-11-20T15:08:35.006Z,4.70
2022-11-20T15:11:02.311Z,4.28
2022-11-20T15:13:40.031Z,4.88
2022-11-20T15:16:20.510Z,3.75
2022-11-20T15:18:48.394Z,4.68
2022-11-20T15:21:18.030Z,4.28
2022-11-20T15:23:45.206Z,6.47
2022-11-20T15:26:19.521Z,4.45
2022-11-20T15:28:50.882Z,4.45
2022-11-20T15:31:21.735Z,4.40
2022-11-20T15:33:48.947Z,4.68
2022-11-20T15:36:15.881Z,4.25
2022-11-20T15:38:42.917Z,6.30
2022-11-20T15:41:10.042Z,4.65
2022-11-20T15:43:36.992Z,5.82
2022-11-20T15:46:12.120Z,5.50
2022-11-20T15:48:53.991Z,5.35
2022-11-20T15:51:43.884Z,5.75
2022-11-20T15:54:12.295Z,5.45
2022-11-20T15:56:39.703Z,5.70
2022-11-20T15:59:06.852Z,5.80
2022-11-20T16:01:34.120Z,5.30
2022-11-20T16:04:02.252Z,6.47
2022-11-20T16:06:29.202Z,5.30
2022-11-20T16:08:56.044Z,4.25
2022-11-20T16:11:23.070Z,5.43
2022-11-20T16:14:08.760Z,5.35
2022-11-20T16:16:38.786Z,5.07
2022-11-20T16:19:06.113Z,5.72
2022-11-20T16:21:33.306Z,6.05
2022-11-20T16:24:02.156Z,5.80
2022-11-20T16:26:29.904Z,5.28
2022-11-20T16:28:57.429Z,6.65
2022-11-20T16:31:24.495Z,6.22
2022-11-20T16:33:59.320Z,6.07
2022-11-20T16:36:28.493Z,8.13
2022-11-20T16:38:57.104Z,6.38
2022-11-20T16:41:28.853Z,8.02
2022-11-20T16:43:58.259Z,6.63
2022-11-20T16:46:27.626Z,5.63
2022-11-20T16:48:56.972Z,6.78
2022-11-20T16:51:30.755Z,8.55
2022-11-20T16:54:00.795Z,7.97
2022-11-20T16:58:59.715Z,7.30
2022-11-20T17:01:28.829Z,7.82
2022-11-20T17:03:58.504Z,8.27
2022-11-20T17:06:28.163Z,9.15
2022-11-20T17:08:56.755Z,8.30
2022-11-20T17:11:24.737Z,7.13
2022-11-20T17:13:54.603Z,7.00
2022-11-20T17:16:23.717Z,6.90
2022-11-20T17:18:50.980Z,6.80
2022-11-20T17:21:19.358Z,6.43
2022-11-20T17:23:47.441Z,6.95
2022-11-20T17:26:20.329Z,6.70
2022-11-20T17:28:52.902Z,5.50
2022-11-20T17:31:19.860Z,5.47
2022-11-20T17:33:47.648Z,7.97
2022-11-20T17:36:17.073Z,7.63
2022-11-20T17:38:44.556Z,6.45
2022-11-20T17:41:19.962Z,8.43
2022-11-20T17:43:47.098Z,7.65
2022-11-20T17:46:24.099Z,7.60
2022-11-20T17:48:51.732Z,8.43
2022-11-20T17:51:26.977Z,7.85
2022-11-20T17:53:57.416Z,8.13
2022-11-20T17:56:42.876Z,7.57
2022-11-20T17:59:18.907Z,7.82
2022-11-20T18:01:49.865Z,6.82
2022-11-20T18:04:47.921Z,7.88
2022-11-20T18:07:15.092Z,6.15
2022-11-20T18:09:42.203Z,6.90
2022-11-20T18:12:09.188Z,7.32
2022-11-20T18:14:43.782Z,6.90
2022-11-20T18:17:13.171Z,6.28
2022-11-20T18:20:07.285Z,7.60
2022-11-20T18:23:07.836Z,7.35
2022-11-20T18:25:34.887Z,9.40
2022-11-20T18:28:02.035Z,10.15
2022-11-20T18:30:29.048Z,10.32
2022-11-20T18:33:00.480Z,9.85
2022-11-20T18:35:30.920Z,10.05
2022-11-20T18:38:05.579Z,10.88
2022-11-20T18:40:45.655Z,9.52
2022-11-20T18:43:32.544Z,8.88
2022-11-20T18:46:04.307Z,7.55
2022-11-20T18:48:42.838Z,7.72
2022-11-20T18:51:16.314Z,10.70
2022-11-20T18:54:09.379Z,9.73
2022-11-20T18:59:08.792Z,7.88
2022-11-20T19:01:49.114Z,8.13
2022-11-20T19:04:25.621Z,8.10
2022-11-20T19:06:56.282Z,9.77
2022-11-20T19:09:26.940Z,7.95
2022-11-20T19:11:54.240Z,7.13
2022-11-20T19:14:21.395Z,6.20
2022-11-20T19:16:48.557Z,6.53
2022-11-20T19:19:15.776Z,5.72
2022-11-20T19:21:42.817Z,6.95
2022-11-20T19:24:12.306Z,8.88
2022-11-20T19:26:39.762Z,9.77
2022-11-20T19:29:07.363Z,8.18
2022-11-20T19:31:34.799Z,7.88
2022-11-20T19:34:03.971Z,6.57
2022-11-20T19:36:39.143Z,6.22
2022-11-20T19:39:10.876Z,6.78
2022-11-20T19:41:40.037Z,6.15
2022-11-20T19:44:12.825Z,6.63
2022-11-20T19:49:41.917Z,5.20
2022-11-20T19:52:11.570Z,6.05
2022-11-20T19:54:41.473Z,5.57
2022-11-20T19:57:08.480Z,5.78
2022-11-20T19:59:35.519Z,5.28
2022-11-20T20:02:03.614Z,6.72
2022-11-20T20:04:30.671Z,8.50
2022-11-20T20:06:57.625Z,9.07
2022-11-20T20:09:26.883Z,8.25
2022-11-20T20:11:54.742Z,9.27
2022-11-20T20:14:22.003Z,9.48
2022-11-20T20:16:49.937Z,8.15
2022-11-20T20:19:17.374Z,8.05
2022-11-20T20:21:44.672Z,7.80
2022-11-20T20:24:12.080Z,7.75
2022-11-20T20:26:39.027Z,8.27
2022-11-20T20:29:06.033Z,7.18
2022-11-20T20:31:33.782Z,6.78
2022-11-20T20:34:03.453Z,6.97
2022-11-20T20:36:33.945Z,6.80
2022-11-20T20:39:03.914Z,6.75
2022-11-20T20:41:31.242Z,7.03
2022-11-20T20:44:17.063Z,6.78
2022-11-20T20:46:44.009Z,5.15
2022-11-20T20:49:11.035Z,5.25
2022-11-20T20:51:39.842Z,5.78
2022-11-20T20:54:10.287Z,4.77
2022-11-20T20:56:38.431Z,4.45
2022-11-20T20:59:06.459Z,5.13
2022-11-20T21:01:33.655Z,4.43
2022-11-20T21:04:00.753Z,4.68
2022-11-20T21:06:27.827Z,4.35
2022-11-20T21:08:57.508Z,4.35
2022-11-20T21:11:24.909Z,3.80
2022-11-20T21:13:53.314Z,4.32
2022-11-20T21:16:24.689Z,4.10
2022-11-20T21:18:51.729Z,5.70
2022-11-20T21:21:40.000Z,5.57
2022-11-20T21:24:07.588Z,5.15
2022-11-20T21:26:34.718Z,4.75
2022-11-20T21:29:01.684Z,5.18
2022-11-20T21:31:30.123Z,5.30
2022-11-20T21:33:57.400Z,4.80
2022-11-20T21:36:29.179Z,4.50
2022-11-20T21:39:00.380Z,5.80
2022-11-20T21:41:32.346Z,5.75
2022-11-20T21:47:18.255Z,5.55
2022-11-20T21:49:46.860Z,5.40
2022-11-20T21:52:16.989Z,5.50
2022-11-20T21:54:44.220Z,5.38
2022-11-20T21:57:11.405Z,5.88
2022-11-20T21:59:38.711Z,4.53
2022-11-20T22:02:05.900Z,5.97
2022-11-20T22:04:40.576Z,5.93
2022-11-20T22:07:08.238Z,5.05
2022-11-20T22:09:35.335Z,5.38
2022-11-20T22:12:02.309Z,6.32
2022-11-20T22:14:29.319Z,5.35
2022-11-20T22:16:58.670Z,4.47
2022-11-20T22:19:25.770Z,5.13
2022-11-20T22:21:52.932Z,5.20
2022-11-20T22:24:21.990Z,5.05
2022-11-20T22:26:50.139Z,5.03
2022-11-20T22:29:22.054Z,4.90
2022-11-20T22:31:59.192Z,4.53
2022-11-20T22:34:26.542Z,4.63
2022-11-20T22:36:56.463Z,4.93
2022-11-20T22:39:26.431Z,4.20
2022-11-20T22:41:56.538Z,4.57
2022-11-20T22:44:26.727Z,4.68
2022-11-20T22:46:55.882Z,3.75
2022-11-20T22:49:22.950Z,4.90
2022-11-20T22:51:50.000Z,4.82
2022-11-20T22:54:17.018Z,5.05
2022-11-20T22:56:45.070Z,4.78
2022-11-20T22:59:12.489Z,4.93
2022-11-20T23:01:39.772Z,3.90
2022-11-20T23:04:28.074Z,4.72
2022-11-20T23:06:57.171Z,4.05
2022-11-20T23:09:27.180Z,5.05
2022-11-20T23:12:03.423Z,5.72
2022-11-20T23:17:25.348Z,5.90
2022-11-20T23:20:08.418Z,4.82
2022-11-20T23:22:59.674Z,5.13
2022-11-20T23:25:31.855Z,4.85
2022-11-20T23:28:06.833Z,5.78
2022-11-20T23:30:33.918Z,4.43
2022-11-20T23:33:00.901Z,5.03
2022-11-20T23:35:27.842Z,5.15
2022-11-20T23:41:25.961Z,5.05
2022-11-20T23:44:39.493Z,5.30
2022-11-20T23:50:22.018Z,4.28
2022-11-20T23:53:08.321Z,3.85
2022-11-20T23:56:07.332Z,3.70
